sensor_id;sensor_type;location;lat;lon;timestamp;P1;durP1;ratioP1;P2;durP2;ratioP2
52744;SDS011;38637;49.984;20.426;2023-07-31T00:00:04;4.13;;;1.60;;
52744;SDS011;38637;49.984;20.426;2023-07-31T00:02:30;3.42;;;1.60;;
52744;SDS011;38637;49.984;20.426;2023-07-31T00:04:56;2.60;;;1.87;;
52744;SDS011;38637;49.984;20.426;2023-07-31T00:07:21;3.23;;;1.77;;
52744;SDS011;38637;49.984;20.426;2023-07-31T00:09:47;1.93;;;1.70;;
52744;SDS011;38637;49.984;20.426;2023-07-31T00:12:12;3.17;;;1.80;;
52744;SDS011;38637;49.984;20.426;2023-07-31T00:14:37;2.00;;;1.77;;
52744;SDS011;38637;49.984;20.426;2023-07-31T00:17:03;2.87;;;1.70;;
52744;SDS011;38637;49.984;20.426;2023-07-31T00:19:28;3.13;;;1.93;;
52744;SDS011;38637;49.984;20.426;2023-07-31T00:21:53;2.67;;;2.20;;
52744;SDS011;38637;49.984;20.426;2023-07-31T00:24:19;2.33;;;1.40;;
52744;SDS011;38637;49.984;20.426;2023-07-31T00:26:44;2.93;;;1.80;;
52744;SDS011;38637;49.984;20.426;2023-07-31T00:29:09;2.50;;;1.80;;
52744;SDS011;38637;49.984;20.426;2023-07-31T00:31:34;1.70;;;1.60;;
52744;SDS011;38637;49.984;20.426;2023-07-31T00:34:00;4.27;;;1.90;;
52744;SDS011;38637;49.984;20.426;2023-07-31T00:36:25;2.00;;;1.80;;
52744;SDS011;38637;49.984;20.426;2023-07-31T00:38:50;1.87;;;1.50;;
52744;SDS011;38637;49.984;20.426;2023-07-31T00:41:16;1.53;;;1.43;;
52744;SDS011;38637;49.984;20.426;2023-07-31T00:43:41;2.00;;;1.50;;
52744;SDS011;38637;49.984;20.426;2023-07-31T00:46:06;3.27;;;1.67;;
52744;SDS011;38637;49.984;20.426;2023-07-31T00:48:32;2.23;;;1.70;;
52744;SDS011;38637;49.984;20.426;2023-07-31T00:50:58;4.20;;;1.98;;
52744;SDS011;38637;49.984;20.426;2023-07-31T00:53:24;4.70;;;1.70;;
52744;SDS011;38637;49.984;20.426;2023-07-31T00:55:50;2.05;;;1.70;;
52744;SDS011;38637;49.984;20.426;2023-07-31T00:58:15;3.13;;;1.70;;
52744;SDS011;38637;49.984;20.426;2023-07-31T01:00:40;1.80;;;1.70;;
52744;SDS011;38637;49.984;20.426;2023-07-31T01:03:06;4.03;;;1.53;;
52744;SDS011;38637;49.984;20.426;2023-07-31T01:08:17;3.35;;;1.70;;
52744;SDS011;38637;49.984;20.426;2023-07-31T01:10:50;2.35;;;1.75;;
52744;SDS011;38637;49.984;20.426;2023-07-31T01:13:21;1.92;;;1.63;;
52744;SDS011;38637;49.984;20.426;2023-07-31T01:15:46;1.80;;;1.67;;
52744;SDS011;38637;49.984;20.426;2023-07-31T01:18:11;2.73;;;1.67;;
52744;SDS011;38637;49.984;20.426;2023-07-31T01:20:37;2.77;;;1.63;;
52744;SDS011;38637;49.984;20.426;2023-07-31T01:28:16;2.08;;;1.60;;
52744;SDS011;38637;49.984;20.426;2023-07-31T01:30:55;1.50;;;1.40;;
52744;SDS011;38637;49.984;20.426;2023-07-31T01:33:25;2.65;;;1.77;;
52744;SDS011;38637;49.984;20.426;2023-07-31T01:35:50;2.03;;;1.67;;
52744;SDS011;38637;49.984;20.426;2023-07-31T01:38:20;1.88;;;1.40;;
52744;SDS011;38637;49.984;20.426;2023-07-31T01:40:46;2.70;;;1.50;;
52744;SDS011;38637;49.984;20.426;2023-07-31T01:43:16;1.67;;;1.30;;
52744;SDS011;38637;49.984;20.426;2023-07-31T01:45:41;1.80;;;1.47;;
52744;SDS011;38637;49.984;20.426;2023-07-31T01:48:07;2.03;;;1.43;;
52744;SDS011;38637;49.984;20.426;2023-07-31T01:50:32;1.67;;;1.30;;
52744;SDS011;38637;49.984;20.426;2023-07-31T01:52:57;3.30;;;1.80;;
52744;SDS011;38637;49.984;20.426;2023-07-31T01:55:22;4.63;;;1.50;;
52744;SDS011;38637;49.984;20.426;2023-07-31T01:57:48;2.63;;;1.33;;
52744;SDS011;38637;49.984;20.426;2023-07-31T02:00:13;1.80;;;1.50;;
52744;SDS011;38637;49.984;20.426;2023-07-31T02:02:38;1.77;;;1.40;;
52744;SDS011;38637;49.984;20.426;2023-07-31T02:05:04;3.00;;;1.20;;
52744;SDS011;38637;49.984;20.426;2023-07-31T02:07:30;4.88;;;1.80;;
52744;SDS011;38637;49.984;20.426;2023-07-31T02:09:55;3.57;;;1.47;;
52744;SDS011;38637;49.984;20.426;2023-07-31T02:12:21;3.07;;;1.67;;
52744;SDS011;38637;49.984;20.426;2023-07-31T02:14:46;3.77;;;1.60;;
52744;SDS011;38637;49.984;20.426;2023-07-31T02:17:11;2.17;;;1.27;;
52744;SDS011;38637;49.984;20.426;2023-07-31T02:19:36;2.60;;;1.33;;
52744;SDS011;38637;49.984;20.426;2023-07-31T02:22:02;1.53;;;1.43;;
52744;SDS011;38637;49.984;20.426;2023-07-31T02:24:27;2.10;;;1.30;;
52744;SDS011;38637;49.984;20.426;2023-07-31T02:26:53;2.07;;;1.60;;
52744;SDS011;38637;49.984;20.426;2023-07-31T02:29:18;1.87;;;1.33;;
52744;SDS011;38637;49.984;20.426;2023-07-31T02:31:43;2.00;;;1.40;;
52744;SDS011;38637;49.984;20.426;2023-07-31T02:34:08;1.77;;;1.40;;
52744;SDS011;38637;49.984;20.426;2023-07-31T02:36:34;3.37;;;1.67;;
52744;SDS011;38637;49.984;20.426;2023-07-31T02:38:59;1.40;;;1.30;;
52744;SDS011;38637;49.984;20.426;2023-07-31T02:41:24;1.40;;;1.30;;
52744;SDS011;38637;49.984;20.426;2023-07-31T02:43:50;1.63;;;1.53;;
52744;SDS011;38637;49.984;20.426;2023-07-31T02:46:15;1.30;;;1.20;;
52744;SDS011;38637;49.984;20.426;2023-07-31T02:48:40;1.40;;;1.30;;
52744;SDS011;38637;49.984;20.426;2023-07-31T02:51:05;2.27;;;1.80;;
52744;SDS011;38637;49.984;20.426;2023-07-31T02:53:31;1.50;;;1.40;;
52744;SDS011;38637;49.984;20.426;2023-07-31T02:55:56;1.30;;;1.20;;
52744;SDS011;38637;49.984;20.426;2023-07-31T02:58:21;3.07;;;1.80;;
52744;SDS011;38637;49.984;20.426;2023-07-31T03:00:47;4.17;;;1.93;;
52744;SDS011;38637;49.984;20.426;2023-07-31T03:03:12;2.17;;;1.77;;
52744;SDS011;38637;49.984;20.426;2023-07-31T03:05:37;2.20;;;1.70;;
52744;SDS011;38637;49.984;20.426;2023-07-31T03:08:03;4.90;;;1.53;;
52744;SDS011;38637;49.984;20.426;2023-07-31T03:10:28;1.67;;;1.58;;
52744;SDS011;38637;49.984;20.426;2023-07-31T03:12:54;4.57;;;2.10;;
52744;SDS011;38637;49.984;20.426;2023-07-31T03:15:19;6.90;;;2.07;;
52744;SDS011;38637;49.984;20.426;2023-07-31T03:17:44;2.00;;;1.80;;
52744;SDS011;38637;49.984;20.426;2023-07-31T03:20:10;1.80;;;1.70;;
52744;SDS011;38637;49.984;20.426;2023-07-31T03:22:35;3.17;;;2.20;;
52744;SDS011;38637;49.984;20.426;2023-07-31T03:25:02;1.80;;;1.67;;
52744;SDS011;38637;49.984;20.426;2023-07-31T03:27:27;2.53;;;2.05;;
52744;SDS011;38637;49.984;20.426;2023-07-31T03:29:53;3.33;;;2.13;;
52744;SDS011;38637;49.984;20.426;2023-07-31T03:32:18;2.20;;;1.97;;
52744;SDS011;38637;49.984;20.426;2023-07-31T03:34:43;2.60;;;1.90;;
52744;SDS011;38637;49.984;20.426;2023-07-31T03:37:09;2.33;;;2.13;;
52744;SDS011;38637;49.984;20.426;2023-07-31T03:39:34;5.17;;;2.27;;
52744;SDS011;38637;49.984;20.426;2023-07-31T03:42:00;2.03;;;1.85;;
52744;SDS011;38637;49.984;20.426;2023-07-31T03:44:25;2.27;;;1.77;;
52744;SDS011;38637;49.984;20.426;2023-07-31T03:46:51;3.20;;;2.03;;
52744;SDS011;38637;49.984;20.426;2023-07-31T03:49:16;2.00;;;1.80;;
52744;SDS011;38637;49.984;20.426;2023-07-31T03:51:41;3.77;;;2.13;;
52744;SDS011;38637;49.984;20.426;2023-07-31T03:54:07;2.33;;;2.13;;
52744;SDS011;38637;49.984;20.426;2023-07-31T03:56:33;5.77;;;2.00;;
52744;SDS011;38637;49.984;20.426;2023-07-31T03:58:58;4.43;;;2.10;;
52744;SDS011;38637;49.984;20.426;2023-07-31T04:01:24;2.63;;;2.10;;
52744;SDS011;38637;49.984;20.426;2023-07-31T04:03:49;3.70;;;2.13;;
52744;SDS011;38637;49.984;20.426;2023-07-31T04:06:14;2.30;;;2.00;;
52744;SDS011;38637;49.984;20.426;2023-07-31T04:08:43;3.05;;;1.98;;
52744;SDS011;38637;49.984;20.426;2023-07-31T04:11:09;3.45;;;2.08;;
52744;SDS011;38637;49.984;20.426;2023-07-31T04:13:34;4.07;;;2.30;;
52744;SDS011;38637;49.984;20.426;2023-07-31T04:15:59;6.00;;;1.90;;
52744;SDS011;38637;49.984;20.426;2023-07-31T04:18:25;3.20;;;2.00;;
52744;SDS011;38637;49.984;20.426;2023-07-31T04:20:51;2.42;;;1.98;;
52744;SDS011;38637;49.984;20.426;2023-07-31T04:23:16;2.30;;;2.10;;
52744;SDS011;38637;49.984;20.426;2023-07-31T04:25:41;2.03;;;1.83;;
52744;SDS011;38637;49.984;20.426;2023-07-31T04:28:07;6.70;;;2.30;;
52744;SDS011;38637;49.984;20.426;2023-07-31T04:30:32;2.87;;;2.30;;
52744;SDS011;38637;49.984;20.426;2023-07-31T04:32:57;2.07;;;1.90;;
52744;SDS011;38637;49.984;20.426;2023-07-31T04:35:23;5.03;;;2.20;;
52744;SDS011;38637;49.984;20.426;2023-07-31T04:37:48;5.83;;;1.93;;
52744;SDS011;38637;49.984;20.426;2023-07-31T04:40:15;4.00;;;2.30;;
52744;SDS011;38637;49.984;20.426;2023-07-31T04:42:41;2.72;;;2.13;;
52744;SDS011;38637;49.984;20.426;2023-07-31T04:45:08;3.17;;;2.50;;
52744;SDS011;38637;49.984;20.426;2023-07-31T04:47:34;3.88;;;2.53;;
52744;SDS011;38637;49.984;20.426;2023-07-31T04:49:59;5.33;;;2.47;;
52744;SDS011;38637;49.984;20.426;2023-07-31T04:52:24;2.33;;;2.00;;
52744;SDS011;38637;49.984;20.426;2023-07-31T04:54:50;6.93;;;2.37;;
52744;SDS011;38637;49.984;20.426;2023-07-31T04:57:15;3.13;;;2.23;;
52744;SDS011;38637;49.984;20.426;2023-07-31T04:59:40;1.83;;;1.70;;
52744;SDS011;38637;49.984;20.426;2023-07-31T05:02:07;3.90;;;1.87;;
52744;SDS011;38637;49.984;20.426;2023-07-31T05:04:33;2.60;;;1.83;;
52744;SDS011;38637;49.984;20.426;2023-07-31T05:06:58;6.70;;;1.73;;
52744;SDS011;38637;49.984;20.426;2023-07-31T05:09:24;3.00;;;2.20;;
52744;SDS011;38637;49.984;20.426;2023-07-31T05:11:49;6.13;;;1.60;;
52744;SDS011;38637;49.984;20.426;2023-07-31T05:14:14;4.37;;;1.67;;
52744;SDS011;38637;49.984;20.426;2023-07-31T05:16:40;3.45;;;1.65;;
52744;SDS011;38637;49.984;20.426;2023-07-31T05:19:06;2.63;;;1.77;;
52744;SDS011;38637;49.984;20.426;2023-07-31T05:21:31;3.07;;;1.80;;
52744;SDS011;38637;49.984;20.426;2023-07-31T05:23:56;2.93;;;1.50;;
52744;SDS011;38637;49.984;20.426;2023-07-31T05:26:22;2.07;;;1.70;;
52744;SDS011;38637;49.984;20.426;2023-07-31T05:28:47;1.70;;;1.60;;
52744;SDS011;38637;49.984;20.426;2023-07-31T05:31:12;4.53;;;2.27;;
52744;SDS011;38637;49.984;20.426;2023-07-31T05:33:38;1.90;;;1.40;;
52744;SDS011;38637;49.984;20.426;2023-07-31T05:36:03;3.13;;;1.70;;
52744;SDS011;38637;49.984;20.426;2023-07-31T05:38:28;6.47;;;1.80;;
52744;SDS011;38637;49.984;20.426;2023-07-31T05:40:54;4.38;;;1.77;;
52744;SDS011;38637;49.984;20.426;2023-07-31T05:43:20;3.93;;;2.10;;
52744;SDS011;38637;49.984;20.426;2023-07-31T05:45:45;3.83;;;1.67;;
52744;SDS011;38637;49.984;20.426;2023-07-31T05:48:10;3.43;;;2.17;;
52744;SDS011;38637;49.984;20.426;2023-07-31T05:50:36;3.33;;;1.87;;
52744;SDS011;38637;49.984;20.426;2023-07-31T05:53:04;3.58;;;1.88;;
52744;SDS011;38637;49.984;20.426;2023-07-31T05:55:29;4.43;;;1.70;;
52744;SDS011;38637;49.984;20.426;2023-07-31T05:57:54;2.60;;;1.83;;
52744;SDS011;38637;49.984;20.426;2023-07-31T06:00:19;2.23;;;1.80;;
52744;SDS011;38637;49.984;20.426;2023-07-31T06:02:45;5.15;;;2.00;;
52744;SDS011;38637;49.984;20.426;2023-07-31T06:05:11;4.60;;;1.58;;
52744;SDS011;38637;49.984;20.426;2023-07-31T06:07:37;2.73;;;1.70;;
52744;SDS011;38637;49.984;20.426;2023-07-31T06:10:02;4.97;;;3.30;;
52744;SDS011;38637;49.984;20.426;2023-07-31T06:12:30;2.42;;;2.00;;
52744;SDS011;38637;49.984;20.426;2023-07-31T06:14:56;2.70;;;2.00;;
52744;SDS011;38637;49.984;20.426;2023-07-31T06:17:22;1.80;;;1.70;;
52744;SDS011;38637;49.984;20.426;2023-07-31T06:19:47;3.07;;;2.07;;
52744;SDS011;38637;49.984;20.426;2023-07-31T06:22:12;5.33;;;2.30;;
52744;SDS011;38637;49.984;20.426;2023-07-31T06:24:38;6.03;;;1.90;;
52744;SDS011;38637;49.984;20.426;2023-07-31T06:27:03;3.07;;;1.80;;
52744;SDS011;38637;49.984;20.426;2023-07-31T06:29:30;6.30;;;1.88;;
52744;SDS011;38637;49.984;20.426;2023-07-31T06:31:55;3.53;;;1.70;;
52744;SDS011;38637;49.984;20.426;2023-07-31T06:34:21;2.53;;;2.33;;
52744;SDS011;38637;49.984;20.426;2023-07-31T06:36:46;4.33;;;1.70;;
52744;SDS011;38637;49.984;20.426;2023-07-31T06:39:11;5.20;;;3.00;;
52744;SDS011;38637;49.984;20.426;2023-07-31T06:41:37;5.30;;;1.90;;
52744;SDS011;38637;49.984;20.426;2023-07-31T06:44:03;2.35;;;1.67;;
52744;SDS011;38637;49.984;20.426;2023-07-31T06:46:28;4.97;;;2.00;;
52744;SDS011;38637;49.984;20.426;2023-07-31T06:48:54;5.67;;;2.90;;
52744;SDS011;38637;49.984;20.426;2023-07-31T06:51:19;4.90;;;2.23;;
52744;SDS011;38637;49.984;20.426;2023-07-31T06:53:45;4.60;;;2.70;;
52744;SDS011;38637;49.984;20.426;2023-07-31T06:56:10;3.40;;;2.00;;
52744;SDS011;38637;49.984;20.426;2023-07-31T06:58:36;3.50;;;2.17;;
52744;SDS011;38637;49.984;20.426;2023-07-31T07:01:01;3.83;;;2.40;;
52744;SDS011;38637;49.984;20.426;2023-07-31T07:03:26;5.67;;;2.57;;
52744;SDS011;38637;49.984;20.426;2023-07-31T07:05:52;2.50;;;2.05;;
52744;SDS011;38637;49.984;20.426;2023-07-31T07:08:17;5.33;;;2.57;;
52744;SDS011;38637;49.984;20.426;2023-07-31T07:10:43;6.53;;;2.37;;
52744;SDS011;38637;49.984;20.426;2023-07-31T07:13:08;3.30;;;2.30;;
52744;SDS011;38637;49.984;20.426;2023-07-31T07:15:34;4.38;;;2.75;;
52744;SDS011;38637;49.984;20.426;2023-07-31T07:17:59;3.33;;;2.93;;
52744;SDS011;38637;49.984;20.426;2023-07-31T07:20:25;5.97;;;2.57;;
52744;SDS011;38637;49.984;20.426;2023-07-31T07:22:50;2.90;;;2.70;;
52744;SDS011;38637;49.984;20.426;2023-07-31T07:25:15;3.53;;;2.63;;
52744;SDS011;38637;49.984;20.426;2023-07-31T07:27:41;3.53;;;3.23;;
52744;SDS011;38637;49.984;20.426;2023-07-31T07:30:06;3.17;;;2.83;;
52744;SDS011;38637;49.984;20.426;2023-07-31T07:32:32;4.13;;;3.30;;
52744;SDS011;38637;49.984;20.426;2023-07-31T07:34:57;4.33;;;2.90;;
52744;SDS011;38637;49.984;20.426;2023-07-31T07:37:22;6.93;;;3.50;;
52744;SDS011;38637;49.984;20.426;2023-07-31T07:39:48;6.10;;;3.50;;
52744;SDS011;38637;49.984;20.426;2023-07-31T07:42:13;4.37;;;3.20;;
52744;SDS011;38637;49.984;20.426;2023-07-31T07:44:38;3.33;;;3.03;;
52744;SDS011;38637;49.984;20.426;2023-07-31T07:47:04;7.03;;;2.93;;
52744;SDS011;38637;49.984;20.426;2023-07-31T07:49:33;2.83;;;2.60;;
52744;SDS011;38637;49.984;20.426;2023-07-31T07:52:00;4.97;;;2.83;;
52744;SDS011;38637;49.984;20.426;2023-07-31T07:54:25;6.70;;;3.13;;
52744;SDS011;38637;49.984;20.426;2023-07-31T07:56:51;4.70;;;3.07;;
52744;SDS011;38637;49.984;20.426;2023-07-31T07:59:16;5.27;;;3.20;;
52744;SDS011;38637;49.984;20.426;2023-07-31T08:01:41;3.83;;;3.37;;
52744;SDS011;38637;49.984;20.426;2023-07-31T08:04:07;4.20;;;3.90;;
52744;SDS011;38637;49.984;20.426;2023-07-31T08:06:32;4.00;;;3.70;;
52744;SDS011;38637;49.984;20.426;2023-07-31T08:08:57;5.83;;;3.57;;
52744;SDS011;38637;49.984;20.426;2023-07-31T08:11:23;3.90;;;3.57;;
52744;SDS011;38637;49.984;20.426;2023-07-31T08:13:48;5.30;;;3.63;;
52744;SDS011;38637;49.984;20.426;2023-07-31T08:16:14;3.85;;;3.47;;
52744;SDS011;38637;49.984;20.426;2023-07-31T08:18:39;3.77;;;3.07;;
52744;SDS011;38637;49.984;20.426;2023-07-31T08:21:05;3.97;;;3.53;;
52744;SDS011;38637;49.984;20.426;2023-07-31T08:23:31;3.47;;;3.17;;
52744;SDS011;38637;49.984;20.426;2023-07-31T08:25:56;4.20;;;3.10;;
52744;SDS011;38637;49.984;20.426;2023-07-31T08:28:21;3.67;;;3.33;;
52744;SDS011;38637;49.984;20.426;2023-07-31T08:30:47;3.80;;;3.50;;
52744;SDS011;38637;49.984;20.426;2023-07-31T08:33:12;3.40;;;3.10;;
52744;SDS011;38637;49.984;20.426;2023-07-31T08:35:37;3.47;;;3.00;;
52744;SDS011;38637;49.984;20.426;2023-07-31T08:38:03;7.67;;;3.10;;
52744;SDS011;38637;49.984;20.426;2023-07-31T08:40:28;3.10;;;2.90;;
52744;SDS011;38637;49.984;20.426;2023-07-31T08:42:54;4.30;;;3.35;;
52744;SDS011;38637;49.984;20.426;2023-07-31T08:45:21;3.85;;;2.65;;
52744;SDS011;38637;49.984;20.426;2023-07-31T08:47:48;3.72;;;2.75;;
52744;SDS011;38637;49.984;20.426;2023-07-31T08:50:15;3.95;;;2.65;;
52744;SDS011;38637;49.984;20.426;2023-07-31T08:52:46;7.20;;;2.85;;
52744;SDS011;38637;49.984;20.426;2023-07-31T08:55:12;10.15;;;2.80;;
52744;SDS011;38637;49.984;20.426;2023-07-31T08:57:38;10.13;;;2.58;;
52744;SDS011;38637;49.984;20.426;2023-07-31T09:00:04;5.70;;;2.10;;
52744;SDS011;38637;49.984;20.426;2023-07-31T09:02:34;4.22;;;2.05;;
52744;SDS011;38637;49.984;20.426;2023-07-31T09:05:05;3.58;;;2.20;;
52744;SDS011;38637;49.984;20.426;2023-07-31T09:07:32;3.35;;;2.08;;
52744;SDS011;38637;49.984;20.426;2023-07-31T09:09:59;5.30;;;1.85;;
52744;SDS011;38637;49.984;20.426;2023-07-31T09:12:25;3.33;;;1.90;;
52744;SDS011;38637;49.984;20.426;2023-07-31T09:14:50;2.47;;;1.90;;
52744;SDS011;38637;49.984;20.426;2023-07-31T09:17:16;2.37;;;1.60;;
52744;SDS011;38637;49.984;20.426;2023-07-31T09:19:57;4.00;;;2.17;;
52744;SDS011;38637;49.984;20.426;2023-07-31T09:25:04;2.55;;;1.33;;
52744;SDS011;38637;49.984;20.426;2023-07-31T09:27:46;2.95;;;1.63;;
52744;SDS011;38637;49.984;20.426;2023-07-31T09:30:15;3.72;;;1.63;;
52744;SDS011;38637;49.984;20.426;2023-07-31T09:32:42;2.78;;;1.52;;
52744;SDS011;38637;49.984;20.426;2023-07-31T09:35:21;3.67;;;1.52;;
52744;SDS011;38637;49.984;20.426;2023-07-31T09:37:51;2.97;;;1.35;;
52744;SDS011;38637;49.984;20.426;2023-07-31T09:40:27;6.90;;;1.80;;
52744;SDS011;38637;49.984;20.426;2023-07-31T09:42:55;5.10;;;1.85;;
52744;SDS011;38637;49.984;20.426;2023-07-31T09:45:22;3.17;;;1.95;;
52744;SDS011;38637;49.984;20.426;2023-07-31T09:47:48;7.07;;;2.05;;
52744;SDS011;38637;49.984;20.426;2023-07-31T09:50:13;7.65;;;2.03;;
52744;SDS011;38637;49.984;20.426;2023-07-31T09:52:40;4.07;;;1.45;;
52744;SDS011;38637;49.984;20.426;2023-07-31T09:55:06;2.63;;;1.60;;
52744;SDS011;38637;49.984;20.426;2023-07-31T09:57:31;7.03;;;1.50;;
52744;SDS011;38637;49.984;20.426;2023-07-31T09:59:58;3.60;;;1.70;;
52744;SDS011;38637;49.984;20.426;2023-07-31T10:02:24;8.88;;;2.03;;
52744;SDS011;38637;49.984;20.426;2023-07-31T10:04:51;3.53;;;1.70;;
52744;SDS011;38637;49.984;20.426;2023-07-31T10:07:23;4.85;;;1.70;;
52744;SDS011;38637;49.984;20.426;2023-07-31T10:09:51;8.68;;;1.55;;
52744;SDS011;38637;49.984;20.426;2023-07-31T10:12:19;5.28;;;1.83;;
52744;SDS011;38637;49.984;20.426;2023-07-31T10:14:44;5.32;;;1.90;;
52744;SDS011;38637;49.984;20.426;2023-07-31T10:17:09;3.20;;;1.67;;
52744;SDS011;38637;49.984;20.426;2023-07-31T10:19:35;5.43;;;1.98;;
52744;SDS011;38637;49.984;20.426;2023-07-31T10:22:02;3.78;;;1.40;;
52744;SDS011;38637;49.984;20.426;2023-07-31T10:24:28;3.42;;;1.70;;
52744;SDS011;38637;49.984;20.426;2023-07-31T10:26:54;4.10;;;1.40;;
52744;SDS011;38637;49.984;20.426;2023-07-31T10:29:23;7.97;;;1.95;;
52744;SDS011;38637;49.984;20.426;2023-07-31T10:31:49;4.13;;;1.70;;
52744;SDS011;38637;49.984;20.426;2023-07-31T10:34:16;6.35;;;1.80;;
52744;SDS011;38637;49.984;20.426;2023-07-31T10:36:42;3.20;;;1.40;;
52744;SDS011;38637;49.984;20.426;2023-07-31T10:39:33;9.13;;;2.60;;
52744;SDS011;38637;49.984;20.426;2023-07-31T10:42:12;2.95;;;1.73;;
52744;SDS011;38637;49.984;20.426;2023-07-31T10:44:38;3.28;;;1.48;;
52744;SDS011;38637;49.984;20.426;2023-07-31T10:47:08;2.78;;;1.60;;
52744;SDS011;38637;49.984;20.426;2023-07-31T10:49:34;9.73;;;3.00;;
52744;SDS011;38637;49.984;20.426;2023-07-31T10:51:59;6.20;;;1.40;;
52744;SDS011;38637;49.984;20.426;2023-07-31T10:54:28;2.20;;;1.30;;
52744;SDS011;38637;49.984;20.426;2023-07-31T10:56:54;4.43;;;1.97;;
52744;SDS011;38637;49.984;20.426;2023-07-31T10:59:19;4.33;;;1.53;;
52744;SDS011;38637;49.984;20.426;2023-07-31T11:04:27;3.83;;;1.60;;
52744;SDS011;38637;49.984;20.426;2023-07-31T11:06:57;4.40;;;1.40;;
52744;SDS011;38637;49.984;20.426;2023-07-31T11:09:28;2.25;;;1.42;;
52744;SDS011;38637;49.984;20.426;2023-07-31T11:11:55;3.90;;;1.58;;
52744;SDS011;38637;49.984;20.426;2023-07-31T11:14:21;4.23;;;2.10;;
52744;SDS011;38637;49.984;20.426;2023-07-31T11:16:49;3.63;;;1.47;;
52744;SDS011;38637;49.984;20.426;2023-07-31T11:19:20;5.70;;;1.55;;
52744;SDS011;38637;49.984;20.426;2023-07-31T11:21:50;4.28;;;1.23;;
52744;SDS011;38637;49.984;20.426;2023-07-31T11:24:17;1.92;;;1.10;;
52744;SDS011;38637;49.984;20.426;2023-07-31T11:29:18;2.55;;;1.33;;
52744;SDS011;38637;49.984;20.426;2023-07-31T11:34:09;4.18;;;1.20;;
52744;SDS011;38637;49.984;20.426;2023-07-31T11:36:35;1.77;;;1.00;;
52744;SDS011;38637;49.984;20.426;2023-07-31T11:39:10;2.77;;;1.40;;
52744;SDS011;38637;49.984;20.426;2023-07-31T11:41:35;4.20;;;1.40;;
52744;SDS011;38637;49.984;20.426;2023-07-31T11:44:00;1.83;;;1.00;;
52744;SDS011;38637;49.984;20.426;2023-07-31T11:46:27;3.75;;;1.20;;
52744;SDS011;38637;49.984;20.426;2023-07-31T11:48:58;2.70;;;1.55;;
52744;SDS011;38637;49.984;20.426;2023-07-31T11:51:24;2.22;;;1.17;;
52744;SDS011;38637;49.984;20.426;2023-07-31T11:53:51;3.22;;;1.45;;
52744;SDS011;38637;49.984;20.426;2023-07-31T11:56:19;4.10;;;1.15;;
52744;SDS011;38637;49.984;20.426;2023-07-31T11:58:49;4.43;;;1.20;;
52744;SDS011;38637;49.984;20.426;2023-07-31T12:01:18;4.72;;;1.65;;
52744;SDS011;38637;49.984;20.426;2023-07-31T12:03:46;8.48;;;1.20;;
52744;SDS011;38637;49.984;20.426;2023-07-31T12:08:37;3.30;;;1.10;;
52744;SDS011;38637;49.984;20.426;2023-07-31T12:11:03;6.87;;;1.13;;
52744;SDS011;38637;49.984;20.426;2023-07-31T12:13:30;1.80;;;0.90;;
52744;SDS011;38637;49.984;20.426;2023-07-31T12:15:58;1.48;;;0.90;;
52744;SDS011;38637;49.984;20.426;2023-07-31T12:18:25;5.68;;;1.00;;
52744;SDS011;38637;49.984;20.426;2023-07-31T12:20:55;2.70;;;1.00;;
52744;SDS011;38637;49.984;20.426;2023-07-31T12:23:25;3.47;;;1.15;;
52744;SDS011;38637;49.984;20.426;2023-07-31T12:28:37;1.52;;;1.05;;
52744;SDS011;38637;49.984;20.426;2023-07-31T12:31:05;3.33;;;1.30;;
52744;SDS011;38637;49.984;20.426;2023-07-31T12:33:33;2.75;;;1.33;;
52744;SDS011;38637;49.984;20.426;2023-07-31T12:36:03;3.72;;;1.10;;
52744;SDS011;38637;49.984;20.426;2023-07-31T12:38:30;7.22;;;1.30;;
52744;SDS011;38637;49.984;20.426;2023-07-31T12:40:55;5.93;;;1.00;;
52744;SDS011;38637;49.984;20.426;2023-07-31T12:43:20;2.13;;;1.40;;
52744;SDS011;38637;49.984;20.426;2023-07-31T12:45:46;3.93;;;1.00;;
52744;SDS011;38637;49.984;20.426;2023-07-31T12:48:12;3.78;;;1.08;;
52744;SDS011;38637;49.984;20.426;2023-07-31T12:50:38;3.08;;;1.00;;
52744;SDS011;38637;49.984;20.426;2023-07-31T12:53:04;1.03;;;0.90;;
52744;SDS011;38637;49.984;20.426;2023-07-31T12:55:30;2.00;;;0.80;;
52744;SDS011;38637;49.984;20.426;2023-07-31T12:57:57;2.63;;;1.33;;
52744;SDS011;38637;49.984;20.426;2023-07-31T13:00:23;2.43;;;0.80;;
52744;SDS011;38637;49.984;20.426;2023-07-31T13:02:48;2.27;;;0.97;;
52744;SDS011;38637;49.984;20.426;2023-07-31T13:05:13;0.80;;;0.70;;
52744;SDS011;38637;49.984;20.426;2023-07-31T13:07:39;2.22;;;0.90;;
52744;SDS011;38637;49.984;20.426;2023-07-31T13:10:05;2.25;;;0.82;;
52744;SDS011;38637;49.984;20.426;2023-07-31T13:14:56;1.42;;;1.05;;
52744;SDS011;38637;49.984;20.426;2023-07-31T13:17:22;4.53;;;0.93;;
52744;SDS011;38637;49.984;20.426;2023-07-31T13:19:47;0.80;;;0.73;;
52744;SDS011;38637;49.984;20.426;2023-07-31T13:22:12;4.07;;;1.03;;
52744;SDS011;38637;49.984;20.426;2023-07-31T13:24:38;1.90;;;0.80;;
52744;SDS011;38637;49.984;20.426;2023-07-31T13:27:03;2.10;;;0.90;;
52744;SDS011;38637;49.984;20.426;2023-07-31T13:29:29;1.70;;;0.80;;
52744;SDS011;38637;49.984;20.426;2023-07-31T13:31:55;6.00;;;1.05;;
52744;SDS011;38637;49.984;20.426;2023-07-31T13:34:20;2.37;;;0.90;;
52744;SDS011;38637;49.984;20.426;2023-07-31T13:36:45;1.77;;;1.10;;
52744;SDS011;38637;49.984;20.426;2023-07-31T13:39:11;1.98;;;1.10;;
52744;SDS011;38637;49.984;20.426;2023-07-31T13:41:36;2.93;;;1.00;;
52744;SDS011;38637;49.984;20.426;2023-07-31T13:44:02;2.50;;;1.20;;
52744;SDS011;38637;49.984;20.426;2023-07-31T13:46:27;1.33;;;0.90;;
52744;SDS011;38637;49.984;20.426;2023-07-31T13:48:53;2.20;;;1.20;;
52744;SDS011;38637;49.984;20.426;2023-07-31T13:51:20;1.20;;;0.90;;
52744;SDS011;38637;49.984;20.426;2023-07-31T13:53:45;2.67;;;1.00;;
52744;SDS011;38637;49.984;20.426;2023-07-31T13:56:11;2.03;;;0.80;;
52744;SDS011;38637;49.984;20.426;2023-07-31T13:58:36;1.23;;;0.80;;
52744;SDS011;38637;49.984;20.426;2023-07-31T14:01:01;4.37;;;1.00;;
52744;SDS011;38637;49.984;20.426;2023-07-31T14:05:53;1.27;;;0.90;;
52744;SDS011;38637;49.984;20.426;2023-07-31T14:08:18;2.43;;;1.00;;
52744;SDS011;38637;49.984;20.426;2023-07-31T14:10:44;2.27;;;0.97;;
52744;SDS011;38637;49.984;20.426;2023-07-31T14:13:09;4.00;;;1.10;;
52744;SDS011;38637;49.984;20.426;2023-07-31T14:15:34;1.50;;;0.93;;
52744;SDS011;38637;49.984;20.426;2023-07-31T14:18:01;2.05;;;0.90;;
52744;SDS011;38637;49.984;20.426;2023-07-31T14:20:27;1.42;;;0.95;;
52744;SDS011;38637;49.984;20.426;2023-07-31T14:22:52;2.80;;;0.90;;
52744;SDS011;38637;49.984;20.426;2023-07-31T14:25:18;4.77;;;0.97;;
52744;SDS011;38637;49.984;20.426;2023-07-31T14:27:43;4.30;;;1.10;;
52744;SDS011;38637;49.984;20.426;2023-07-31T14:30:08;1.87;;;1.00;;
52744;SDS011;38637;49.984;20.426;2023-07-31T14:32:34;3.97;;;1.02;;
52744;SDS011;38637;49.984;20.426;2023-07-31T14:34:59;1.77;;;0.97;;
52744;SDS011;38637;49.984;20.426;2023-07-31T14:37:25;1.93;;;0.97;;
52744;SDS011;38637;49.984;20.426;2023-07-31T14:39:52;2.78;;;1.23;;
52744;SDS011;38637;49.984;20.426;2023-07-31T14:42:17;1.40;;;1.00;;
52744;SDS011;38637;49.984;20.426;2023-07-31T14:44:44;1.00;;;0.75;;
52744;SDS011;38637;49.984;20.426;2023-07-31T14:47:09;3.07;;;1.07;;
52744;SDS011;38637;49.984;20.426;2023-07-31T14:49:34;1.63;;;1.00;;
52744;SDS011;38637;49.984;20.426;2023-07-31T14:51:59;3.40;;;0.80;;
52744;SDS011;38637;49.984;20.426;2023-07-31T14:54:25;3.47;;;0.90;;